createdAt,value
2022-07-29T00:02:06.188Z,100940.62
2022-07-29T00:05:13.879Z,100939.25
2022-07-29T00:08:18.005Z,100946.39
2022-07-29T00:11:27.935Z,100945.09
2022-07-29T00:14:32.027Z,100940.78
2022-07-29T00:17:36.122Z,100943.41
2022-07-29T00:20:40.221Z,100943.52
2022-07-29T00:23:44.281Z,100946.33
2022-07-29T00:26:48.437Z,100952.51
2022-07-29T00:29:53.692Z,100951.19
2022-07-29T00:32:57.729Z,100948.30
2022-07-29T00:36:01.655Z,100941.63
2022-07-29T00:39:05.919Z,100945.44
2022-07-29T00:42:11.787Z,100952.44
2022-07-29T00:45:16.933Z,100954.19
2022-07-29T00:48:21.190Z,100950.47
2022-07-29T00:51:28.127Z,100943.23
2022-07-29T00:54:33.081Z,100948.54
2022-07-29T00:57:37.961Z,100945.42
2022-07-29T01:00:42.510Z,100941.95
2022-07-29T01:03:49.327Z,100944.78
2022-07-29T01:06:54.472Z,100945.61
2022-07-29T01:10:03.367Z,100949.42
2022-07-29T01:13:08.634Z,100949.16
2022-07-29T01:16:29.483Z,100948.56
2022-07-29T01:19:49.822Z,100947.73
2022-07-29T01:23:39.886Z,100950.69
2022-07-29T01:26:52.882Z,100950.08
2022-07-29T01:30:01.260Z,100947.00
2022-07-29T01:33:34.719Z,100943.88
2022-07-29T01:36:48.145Z,100938.64
2022-07-29T01:39:58.478Z,100936.73
2022-07-29T01:43:13.405Z,100943.88
2022-07-29T01:46:26.539Z,100935.47
2022-07-29T01:49:35.846Z,100932.73
2022-07-29T01:52:44.646Z,100925.14
2022-07-29T01:55:51.432Z,100920.73
2022-07-29T01:58:56.875Z,100924.76
2022-07-29T02:02:03.779Z,100921.20
2022-07-29T02:05:12.143Z,100928.19
2022-07-29T02:08:20.149Z,100928.81
2022-07-29T02:11:24.611Z,100930.72
2022-07-29T02:14:31.521Z,100924.43
2022-07-29T02:17:41.005Z,100923.12
2022-07-29T02:20:48.175Z,100913.92
2022-07-29T02:23:55.706Z,100903.00
2022-07-29T02:27:02.621Z,100916.02
2022-07-29T02:30:10.597Z,100923.77
2022-07-29T02:33:19.319Z,100915.35
2022-07-29T02:36:28.010Z,100911.55
2022-07-29T02:39:35.456Z,100911.55
2022-07-29T02:42:42.437Z,100913.92
2022-07-29T02:45:51.869Z,100904.70
2022-07-29T02:49:02.767Z,100907.44
2022-07-29T02:52:10.463Z,100911.22
2022-07-29T02:55:23.239Z,100907.66
2022-07-29T02:58:30.261Z,100902.20
2022-07-29T03:01:36.022Z,100900.77
2022-07-29T03:04:43.985Z,100893.17
2022-07-29T03:07:52.209Z,100887.49
2022-07-29T03:10:57.847Z,100894.61
2022-07-29T03:14:02.369Z,100901.28
2022-07-29T03:17:12.380Z,100898.14
2022-07-29T03:20:17.134Z,100893.28
2022-07-29T03:23:23.243Z,100886.30
2022-07-29T03:26:27.706Z,100885.82
2022-07-29T03:29:33.461Z,100897.35
2022-07-29T03:32:53.150Z,100899.86
2022-07-29T03:35:59.453Z,100892.05
2022-07-29T03:39:05.101Z,100904.53
2022-07-29T03:42:11.817Z,100898.90
2022-07-29T03:45:18.452Z,100895.63
2022-07-29T03:48:25.349Z,100896.27
2022-07-29T03:51:31.583Z,100884.41
2022-07-29T03:54:40.837Z,100887.98
2022-07-29T03:57:47.832Z,100889.28
2022-07-29T04:00:53.541Z,100893.09
2022-07-29T04:03:57.731Z,100891.44
2022-07-29T04:07:02.164Z,100897.45
2022-07-29T04:10:08.154Z,100901.30
2022-07-29T04:13:12.177Z,100901.47
2022-07-29T04:16:16.215Z,100907.81
2022-07-29T04:19:22.133Z,100910.89
2022-07-29T04:22:26.256Z,100911.73
2022-07-29T04:25:31.404Z,100913.66
2022-07-29T04:28:35.346Z,100912.83
2022-07-29T04:31:39.238Z,100922.45
2022-07-29T04:34:43.233Z,100925.50
2022-07-29T04:37:50.142Z,100925.79
2022-07-29T04:40:54.131Z,100921.42
2022-07-29T04:44:01.309Z,100928.25
2022-07-29T04:47:08.590Z,100923.48
2022-07-29T04:50:12.839Z,100917.63
2022-07-29T04:53:19.537Z,100917.02
2022-07-29T04:56:24.142Z,100918.57
2022-07-29T04:59:28.058Z,100916.81
2022-07-29T05:02:34.273Z,100920.84
2022-07-29T05:05:38.522Z,100922.31
2022-07-29T05:08:42.665Z,100920.23
2022-07-29T05:11:46.687Z,100912.59
2022-07-29T05:14:50.853Z,100912.13
2022-07-29T05:17:54.826Z,100909.67
2022-07-29T05:21:01.167Z,100910.83
2022-07-29T05:24:06.398Z,100909.48
2022-07-29T05:27:10.654Z,100910.06
2022-07-29T05:30:14.977Z,100916.43
2022-07-29T05:33:36.269Z,100913.71
2022-07-29T05:36:40.791Z,100916.80
2022-07-29T05:39:48.181Z,100917.05
2022-07-29T05:42:53.440Z,100923.62
2022-07-29T05:45:58.113Z,100919.98
2022-07-29T05:49:03.250Z,100917.15
2022-07-29T05:52:07.908Z,100928.13
2022-07-29T05:55:12.335Z,100920.27
2022-07-29T05:58:16.779Z,100921.84
2022-07-29T06:01:21.032Z,100917.29
2022-07-29T06:04:25.407Z,100922.34
2022-07-29T06:07:29.836Z,100915.17
2022-07-29T06:10:42.507Z,100924.88
2022-07-29T06:13:47.103Z,100917.27
2022-07-29T06:16:51.563Z,100915.61
2022-07-29T06:19:55.844Z,100913.59
2022-07-29T06:23:01.845Z,100919.04
2022-07-29T06:26:07.851Z,100915.92
2022-07-29T06:29:12.527Z,100919.69
2022-07-29T06:32:16.841Z,100916.58
2022-07-29T06:35:38.384Z,100912.04
2022-07-29T06:38:50.437Z,100920.91
2022-07-29T06:41:55.989Z,100925.28
2022-07-29T06:45:06.195Z,100929.03
2022-07-29T06:48:13.572Z,100927.38
2022-07-29T06:51:22.703Z,100931.35
2022-07-29T06:54:28.020Z,100930.05
2022-07-29T06:57:31.909Z,100932.59
2022-07-29T07:00:35.985Z,100929.73
2022-07-29T07:03:43.337Z,100933.04
2022-07-29T07:06:49.868Z,100925.19
2022-07-29T07:09:57.391Z,100918.44
2022-07-29T07:13:05.079Z,100923.88
2022-07-29T07:16:09.241Z,100915.67
2022-07-29T07:19:14.187Z,100921.91
2022-07-29T07:22:18.335Z,100925.63
2022-07-29T07:25:22.550Z,100913.41
2022-07-29T07:28:26.612Z,100910.63
2022-07-29T07:31:33.727Z,100914.28
2022-07-29T07:34:38.319Z,100919.19
2022-07-29T07:37:44.307Z,100919.72
2022-07-29T07:40:48.161Z,100920.55
2022-07-29T07:43:52.279Z,100927.82
2022-07-29T07:46:56.537Z,100931.45
2022-07-29T07:50:18.483Z,100928.52
2022-07-29T07:53:23.393Z,100938.70
2022-07-29T07:56:33.256Z,100942.63
2022-07-29T07:59:39.481Z,100935.89
2022-07-29T08:02:43.773Z,100934.91
2022-07-29T08:05:48.767Z,100934.23
2022-07-29T08:08:56.220Z,100929.33
2022-07-29T08:12:12.559Z,100936.11
2022-07-29T08:15:18.810Z,100941.00
2022-07-29T08:18:23.186Z,100951.66
2022-07-29T08:21:27.572Z,100953.14
2022-07-29T08:24:44.051Z,100954.59
2022-07-29T08:27:49.163Z,100947.39
2022-07-29T08:30:53.602Z,100952.17
2022-07-29T08:34:00.213Z,100951.25
2022-07-29T08:37:04.335Z,100961.11
2022-07-29T08:40:10.043Z,100963.58
2022-07-29T08:43:14.700Z,100961.40
2022-07-29T08:46:20.496Z,100957.61
2022-07-29T08:49:34.625Z,100949.39
2022-07-29T08:52:41.005Z,100945.91
2022-07-29T08:55:46.923Z,100951.51
2022-07-29T08:58:52.253Z,100954.30
2022-07-29T09:02:00.800Z,100958.57
2022-07-29T09:05:07.534Z,100957.44
2022-07-29T09:08:13.597Z,100961.34
2022-07-29T09:11:22.504Z,100958.50
2022-07-29T09:14:26.740Z,100958.63
2022-07-29T09:17:48.119Z,100957.65
2022-07-29T09:21:12.283Z,100960.00
2022-07-29T09:24:17.936Z,100965.44
2022-07-29T09:27:29.385Z,100957.97
2022-07-29T09:30:35.446Z,100957.77
2022-07-29T09:33:40.914Z,100954.36
2022-07-29T09:36:47.928Z,100962.60
2022-07-29T09:39:53.026Z,100961.53
2022-07-29T09:42:57.739Z,100956.31
2022-07-29T09:46:12.720Z,100956.94
2022-07-29T09:49:16.986Z,100945.78
2022-07-29T09:52:22.119Z,100945.39
2022-07-29T09:55:26.119Z,100952.13
2022-07-29T09:58:30.174Z,100947.87
2022-07-29T10:01:34.507Z,100944.58
2022-07-29T10:04:43.087Z,100944.44
2022-07-29T10:07:53.477Z,100932.44
2022-07-29T10:11:11.362Z,100944.12
2022-07-29T10:14:16.725Z,100940.87
2022-07-29T10:17:23.293Z,100937.75
2022-07-29T10:20:32.070Z,100937.07
2022-07-29T10:23:47.113Z,100931.56
2022-07-29T10:26:53.066Z,100929.70
2022-07-29T10:30:00.092Z,100918.70
2022-07-29T10:33:29.037Z,100916.50
2022-07-29T10:36:48.554Z,100905.45
2022-07-29T10:40:03.035Z,100912.22
2022-07-29T10:43:18.635Z,100913.29
2022-07-29T10:46:25.519Z,100905.86
2022-07-29T10:49:32.487Z,100901.83
2022-07-29T10:52:57.783Z,100910.08
2022-07-29T10:56:02.071Z,100907.13
2022-07-29T10:59:32.323Z,100916.25
2022-07-29T11:02:51.569Z,100907.36
2022-07-29T11:06:00.525Z,100916.16
2022-07-29T11:09:30.167Z,100916.50
2022-07-29T11:12:52.062Z,100910.61
2022-07-29T11:15:57.765Z,100915.51
2022-07-29T11:19:26.591Z,100907.61
2022-07-29T11:22:37.698Z,100905.50
2022-07-29T11:26:18.486Z,100901.01
2022-07-29T11:29:24.160Z,100913.66
2022-07-29T11:32:38.517Z,100899.48
2022-07-29T11:35:43.299Z,100896.84
2022-07-29T11:39:36.968Z,100886.76
2022-07-29T11:42:46.540Z,100890.50
2022-07-29T11:45:51.186Z,100893.66
2022-07-29T11:48:57.557Z,100885.01
2022-07-29T11:52:03.489Z,100879.16
2022-07-29T11:55:09.940Z,100880.78
2022-07-29T11:58:14.476Z,100881.93
2022-07-29T12:01:24.747Z,100882.03
2022-07-29T12:04:28.963Z,100876.22
2022-07-29T12:07:35.480Z,100870.81
2022-07-29T12:10:40.889Z,100878.56
2022-07-29T12:13:47.661Z,100864.33
2022-07-29T12:16:53.725Z,100877.86
2022-07-29T12:20:03.991Z,100872.68
2022-07-29T12:23:12.079Z,100868.34
2022-07-29T12:26:25.612Z,100869.45
2022-07-29T12:29:35.476Z,100874.95
2022-07-29T12:32:46.804Z,100862.96
2022-07-29T12:36:17.594Z,100845.52
2022-07-29T12:39:22.363Z,100843.26
2022-07-29T12:42:27.662Z,100846.57
2022-07-29T12:45:33.933Z,100844.89
2022-07-29T12:48:39.982Z,100836.24
2022-07-29T12:51:44.446Z,100834.46
2022-07-29T12:54:50.395Z,100841.16
2022-07-29T12:57:56.343Z,100829.56
2022-07-29T13:01:06.791Z,100831.70
2022-07-29T13:04:37.099Z,100837.15
2022-07-29T13:07:56.993Z,100838.02
2022-07-29T13:11:01.797Z,100826.70
2022-07-29T13:14:07.145Z,100830.48
2022-07-29T13:17:14.733Z,100822.92
2022-07-29T13:20:30.087Z,100826.56
2022-07-29T13:23:45.051Z,100827.84
2022-07-29T13:26:49.231Z,100832.50
2022-07-29T13:30:00.543Z,100827.22
2022-07-29T13:33:04.788Z,100812.98
2022-07-29T13:36:10.368Z,100811.14
2022-07-29T13:39:15.870Z,100802.39
2022-07-29T13:42:22.252Z,100794.75
2022-07-29T13:45:29.021Z,100795.64
2022-07-29T13:48:33.503Z,100799.82
2022-07-29T13:51:37.979Z,100791.02
2022-07-29T13:54:45.253Z,100791.41
2022-07-29T13:57:49.354Z,100790.98
2022-07-29T14:00:53.658Z,100790.62
2022-07-29T14:03:58.120Z,100778.64
2022-07-29T14:07:04.005Z,100766.53
2022-07-29T14:10:09.993Z,100768.27
2022-07-29T14:14:07.472Z,100779.13
2022-07-29T14:16:52.278Z,100767.39
2022-07-29T14:19:59.330Z,100766.41
2022-07-29T14:23:05.262Z,100773.05
2022-07-29T14:26:13.193Z,100763.31
2022-07-29T14:29:23.877Z,100766.14
2022-07-29T14:32:41.519Z,100763.84
2022-07-29T14:35:46.760Z,100751.66
2022-07-29T14:38:53.360Z,100762.01
2022-07-29T14:41:57.524Z,100766.27
2022-07-29T14:45:03.876Z,100759.56
2022-07-29T14:48:08.003Z,100765.77
2022-07-29T14:51:12.198Z,100764.84
2022-07-29T14:54:19.605Z,100760.70
2022-07-29T14:57:24.524Z,100772.77
2022-07-29T15:00:32.690Z,100770.11
2022-07-29T15:03:36.918Z,100766.16
2022-07-29T15:06:44.389Z,100761.16
2022-07-29T15:09:49.970Z,100756.33
2022-07-29T15:12:54.653Z,100747.02
2022-07-29T15:16:00.928Z,100741.61
2022-07-29T15:19:11.837Z,100732.56
2022-07-29T15:22:15.867Z,100738.66
2022-07-29T15:25:20.141Z,100733.70
2022-07-29T15:28:25.690Z,100736.08
2022-07-29T15:31:29.853Z,100734.25
2022-07-29T15:34:34.050Z,100736.94
2022-07-29T15:37:49.418Z,100737.20
2022-07-29T15:40:53.681Z,100727.38
2022-07-29T15:44:01.054Z,100729.95
2022-07-29T15:47:06.539Z,100734.58
2022-07-29T15:50:15.345Z,100726.84
2022-07-29T15:53:19.886Z,100723.14
2022-07-29T15:56:24.212Z,100729.65
2022-07-29T15:59:33.852Z,100725.14
2022-07-29T16:02:38.005Z,100724.87
2022-07-29T16:05:42.358Z,100728.00
2022-07-29T16:08:46.521Z,100723.83
2022-07-29T16:11:54.642Z,100729.58
2022-07-29T16:14:58.653Z,100731.77
2022-07-29T16:18:03.770Z,100725.45
2022-07-29T16:21:09.082Z,100727.22
2022-07-29T16:24:13.261Z,100727.52
2022-07-29T16:27:17.240Z,100729.59
2022-07-29T16:30:22.581Z,100724.28
2022-07-29T16:33:27.781Z,100717.30
2022-07-29T16:36:31.894Z,100719.31
2022-07-29T16:39:36.200Z,100710.45
2022-07-29T16:42:47.888Z,100702.25
2022-07-29T16:45:52.250Z,100700.61
2022-07-29T16:48:56.508Z,100698.52
2022-07-29T16:52:00.715Z,100692.81
2022-07-29T16:55:07.337Z,100682.87
2022-07-29T16:58:11.925Z,100688.58
2022-07-29T17:01:17.388Z,100691.77
2022-07-29T17:04:23.089Z,100693.15
2022-07-29T17:07:27.792Z,100689.73
2022-07-29T17:10:32.248Z,100690.48
2022-07-29T17:13:36.845Z,100684.92
2022-07-29T17:16:40.846Z,100693.48
2022-07-29T17:19:45.193Z,100688.14
2022-07-29T17:22:49.215Z,100685.39
2022-07-29T17:25:53.612Z,100689.89
2022-07-29T17:28:58.056Z,100685.76
2022-07-29T17:32:02.194Z,100690.50
2022-07-29T17:35:23.438Z,100689.06
2022-07-29T17:38:27.468Z,100690.20
2022-07-29T17:41:32.713Z,100691.13
2022-07-29T17:44:40.282Z,100685.88
2022-07-29T17:47:44.932Z,100685.91
2022-07-29T17:50:53.318Z,100682.28
2022-07-29T17:53:57.782Z,100679.92
2022-07-29T17:57:02.149Z,100688.81
2022-07-29T18:00:09.621Z,100696.78
2022-07-29T18:03:16.504Z,100690.08
2022-07-29T18:06:21.109Z,100690.97
2022-07-29T18:09:25.086Z,100690.44
2022-07-29T18:12:29.530Z,100687.88
2022-07-29T18:15:34.053Z,100690.20
2022-07-29T18:18:39.252Z,100686.47
2022-07-29T18:21:52.045Z,100691.82
2022-07-29T18:24:59.755Z,100690.17
2022-07-29T18:28:05.346Z,100685.59
2022-07-29T18:31:09.785Z,100684.00
2022-07-29T18:34:13.943Z,100686.07
2022-07-29T18:37:18.088Z,100672.82
2022-07-29T18:40:42.307Z,100681.14
2022-07-29T18:43:46.738Z,100683.56
2022-07-29T18:46:51.694Z,100680.09
2022-07-29T18:49:56.237Z,100670.67
2022-07-29T18:53:02.635Z,100668.48
2022-07-29T18:56:07.051Z,100672.00
2022-07-29T18:59:11.612Z,100670.77
2022-07-29T19:02:16.410Z,100670.05
2022-07-29T19:05:20.776Z,100675.06
2022-07-29T19:08:25.375Z,100683.98
2022-07-29T19:11:30.982Z,100678.69
2022-07-29T19:14:35.431Z,100678.11
2022-07-29T19:17:39.585Z,100684.45
2022-07-29T19:20:43.751Z,100682.42
2022-07-29T19:24:05.786Z,100686.48
2022-07-29T19:27:12.306Z,100685.30
2022-07-29T19:30:16.400Z,100679.34
2022-07-29T19:33:20.911Z,100679.48
2022-07-29T19:36:26.898Z,100680.75
2022-07-29T19:39:34.717Z,100688.05
2022-07-29T19:42:39.743Z,100680.72
2022-07-29T19:45:45.627Z,100684.42
2022-07-29T19:48:50.504Z,100677.87
2022-07-29T19:51:54.713Z,100678.83
2022-07-29T19:54:58.902Z,100685.58
2022-07-29T19:58:03.941Z,100684.30
2022-07-29T20:01:11.031Z,100678.33
2022-07-29T20:04:15.171Z,100677.61
2022-07-29T20:07:19.460Z,100678.02
2022-07-29T20:10:23.839Z,100682.50
2022-07-29T20:13:28.573Z,100678.17
2022-07-29T20:16:32.929Z,100687.11
2022-07-29T20:19:37.158Z,100679.16
2022-07-29T20:22:41.667Z,100683.09
2022-07-29T20:25:45.989Z,100680.97
2022-07-29T20:28:50.443Z,100682.70
2022-07-29T20:31:56.738Z,100673.91
2022-07-29T20:35:01.076Z,100672.02
2022-07-29T20:38:06.450Z,100667.08
2022-07-29T20:41:10.730Z,100676.50
2022-07-29T20:44:14.885Z,100676.23
2022-07-29T20:47:20.495Z,100673.50
2022-07-29T20:50:28.133Z,100682.09
2022-07-29T20:53:33.388Z,100675.74
2022-07-29T20:56:38.292Z,100679.08
2022-07-29T20:59:45.787Z,100685.98
2022-07-29T21:02:51.141Z,100687.09
2022-07-29T21:05:55.153Z,100690.42
2022-07-29T21:09:00.600Z,100687.97
2022-07-29T21:12:06.338Z,100687.41
2022-07-29T21:15:13.002Z,100694.31
2022-07-29T21:18:27.414Z,100697.61
2022-07-29T21:21:34.414Z,100702.86
2022-07-29T21:24:41.286Z,100703.97
2022-07-29T21:28:03.490Z,100708.66
2022-07-29T21:31:09.837Z,100699.52
2022-07-29T21:34:14.980Z,100697.30
2022-07-29T21:37:19.060Z,100711.31
2022-07-29T21:40:23.612Z,100698.91
2022-07-29T21:43:28.372Z,100691.73
2022-07-29T21:46:32.371Z,100704.92
2022-07-29T21:49:36.588Z,100713.74
2022-07-29T21:52:43.532Z,100707.90
2022-07-29T21:55:49.949Z,100705.14
2022-07-29T21:58:54.484Z,100703.46
2022-07-29T22:02:00.370Z,100690.77
2022-07-29T22:05:04.821Z,100696.83
2022-07-29T22:08:08.969Z,100694.03
2022-07-29T22:11:13.425Z,100688.52
2022-07-29T22:14:18.143Z,100697.56
2022-07-29T22:17:22.947Z,100703.88
2022-07-29T22:20:30.094Z,100711.53
2022-07-29T22:23:34.113Z,100703.00
2022-07-29T22:26:38.749Z,100700.52
2022-07-29T22:29:42.852Z,100708.20
2022-07-29T22:32:49.030Z,100693.06
2022-07-29T22:35:53.184Z,100702.66
2022-07-29T22:38:57.278Z,100697.70
2022-07-29T22:42:01.424Z,100688.06
2022-07-29T22:45:08.991Z,100703.72
2022-07-29T22:48:12.998Z,100698.20
2022-07-29T22:51:19.300Z,100695.14
2022-07-29T22:54:23.594Z,100687.13
2022-07-29T22:57:27.724Z,100683.25
2022-07-29T23:00:32.088Z,100682.42
2022-07-29T23:03:37.034Z,100679.11
2022-07-29T23:06:41.280Z,100684.05
2022-07-29T23:09:45.391Z,100681.30
2022-07-29T23:12:49.583Z,100680.48
2022-07-29T23:15:53.825Z,100671.66
2022-07-29T23:18:58.137Z,100675.48
2022-07-29T23:22:03.112Z,100662.28
2022-07-29T23:25:09.016Z,100655.39
2022-07-29T23:28:13.881Z,100654.83
2022-07-29T23:31:18.331Z,100647.09
2022-07-29T23:34:22.644Z,100645.14
2022-07-29T23:37:27.257Z,100640.44
2022-07-29T23:40:31.813Z,100639.31
2022-07-29T23:43:36.002Z,100630.19
2022-07-29T23:46:39.985Z,100619.98
2022-07-29T23:49:44.089Z,100623.54
2022-07-29T23:52:50.042Z,100625.72
2022-07-29T23:55:54.150Z,100630.09
2022-07-29T23:59:01.193Z,100635.02
